createdAt,value
2022-08-09T00:01:54.876Z,185.62
2022-08-09T00:07:18.266Z,187.53
2022-08-09T00:12:51.595Z,190.25
2022-08-09T00:18:21.905Z,193.85
2022-08-09T00:23:57.861Z,193.50
2022-08-09T00:29:39.344Z,194.42
2022-08-09T00:34:58.599Z,195.81
2022-08-09T00:40:30.142Z,197.94
2022-08-09T00:46:01.038Z,198.42
2022-08-09T00:51:33.949Z,199.75
2022-08-09T00:57:10.690Z,200.73
2022-08-09T03:04:16.770Z,226.34
2022-08-09T03:09:16.071Z,228.23
2022-08-09T03:14:48.159Z,226.81
2022-08-09T03:20:43.388Z,240.44
2022-08-09T03:26:14.965Z,240.62
2022-08-09T03:31:59.502Z,238.17
2022-08-09T03:37:54.586Z,237.48
2022-08-09T03:42:50.364Z,236.11
2022-08-09T03:48:30.609Z,237.65
2022-08-09T03:53:54.048Z,236.62
2022-08-09T03:59:27.246Z,234.76
2022-08-09T04:04:58.432Z,235.77
2022-08-09T04:10:30.510Z,233.26
2022-08-09T04:16:20.256Z,234.09
2022-08-09T04:21:38.470Z,233.93
2022-08-09T04:27:05.225Z,234.76
2022-08-09T04:32:38.562Z,233.10
2022-08-09T04:38:09.096Z,232.60
2022-08-09T04:43:53.650Z,231.78
2022-08-09T04:49:14.559Z,230.80
2022-08-09T04:54:45.018Z,231.45
2022-08-09T05:00:17.244Z,225.41
2022-08-09T05:05:52.070Z,223.87
2022-08-09T05:11:21.214Z,222.35
2022-08-09T05:16:59.564Z,220.71
2022-08-09T05:22:33.227Z,221.30
2022-08-09T05:27:57.859Z,221.30
2022-08-09T05:33:33.164Z,221.15
2022-08-09T05:39:01.566Z,219.53
2022-08-09T05:44:34.889Z,219.38
2022-08-09T05:50:25.804Z,218.07
2022-08-09T05:55:36.889Z,212.28
2022-08-09T06:01:08.807Z,207.19
2022-08-09T06:06:45.141Z,199.63
2022-08-09T06:12:12.691Z,193.73
2022-08-09T06:17:44.573Z,187.96
2022-08-09T06:23:16.395Z,184.39
2022-08-09T06:28:47.913Z,178.48
2022-08-09T06:34:19.981Z,172.57
2022-08-09T06:39:59.848Z,165.88
2022-08-09T06:46:06.940Z,160.61
2022-08-09T06:50:55.103Z,156.10
2022-08-09T06:56:31.154Z,152.26
2022-08-09T07:02:03.589Z,148.86
2022-08-09T07:08:00.551Z,144.73
2022-08-09T07:13:18.563Z,141.90
2022-08-09T07:18:34.203Z,139.88
2022-08-09T07:24:06.277Z,138.26
2022-08-09T07:29:42.888Z,136.90
2022-08-09T07:35:10.719Z,135.23
2022-08-09T07:41:08.331Z,135.67
2022-08-09T07:46:13.248Z,133.93
2022-08-09T07:52:06.122Z,133.29
2022-08-09T07:57:17.435Z,132.23
2022-08-09T08:02:49.248Z,130.57
2022-08-09T08:09:01.718Z,130.17
2022-08-09T08:13:56.891Z,128.56
2022-08-09T08:19:29.221Z,129.06
2022-08-09T08:30:26.840Z,128.76
2022-08-09T08:36:00.435Z,128.46
2022-08-09T08:41:42.026Z,127.87
2022-08-09T08:47:04.485Z,130.27
2022-08-09T08:58:05.483Z,133.50
2022-08-09T09:03:37.840Z,133.71
2022-08-09T09:09:21.251Z,137.23
2022-08-09T09:14:41.043Z,137.91
2022-08-09T09:20:15.545Z,139.18
2022-08-09T09:26:01.380Z,140.23
2022-08-09T09:31:17.489Z,139.88
2022-08-09T09:36:53.253Z,140.82
2022-08-09T09:42:21.347Z,140.47
2022-08-09T09:47:56.366Z,140.94
2022-08-09T09:53:43.720Z,142.87
2022-08-09T09:58:56.222Z,141.90
2022-08-09T10:04:30.993Z,143.36
2022-08-09T10:10:00.112Z,143.86
2022-08-09T10:16:08.674Z,143.98
2022-08-09T10:21:03.810Z,142.87
2022-08-09T10:26:35.615Z,142.75
2022-08-09T10:37:39.516Z,144.11
2022-08-09T10:43:13.022Z,142.75
2022-08-09T10:48:43.942Z,144.61
2022-08-09T10:54:15.738Z,145.62
2022-08-09T10:59:57.423Z,147.29
2022-08-09T11:05:24.980Z,147.29
2022-08-09T11:10:54.684Z,147.16
2022-08-09T11:16:35.040Z,148.07
2022-08-09T11:22:05.453Z,148.73
2022-08-09T11:28:05.224Z,148.07
2022-08-09T11:32:59.658Z,148.60
2022-08-09T11:38:33.293Z,147.81
2022-08-09T11:44:03.197Z,148.07
2022-08-09T11:49:42.566Z,148.33
2022-08-09T11:55:06.876Z,146.00
2022-08-09T12:00:38.663Z,144.98
2022-08-09T12:06:10.721Z,144.61
2022-08-09T12:12:02.694Z,143.73
2022-08-09T12:17:33.893Z,143.98
2022-08-09T12:22:46.337Z,141.90
2022-08-09T12:29:11.816Z,141.78
2022-08-09T12:33:58.688Z,141.18
2022-08-09T12:39:21.975Z,140.23
2022-08-09T12:44:54.734Z,139.53
2022-08-09T12:50:26.053Z,139.64
2022-08-09T12:56:15.326Z,138.37
2022-08-09T13:01:29.820Z,138.60
2022-08-09T13:07:01.995Z,137.69
2022-08-09T13:12:40.047Z,137.23
2022-08-09T13:18:09.800Z,137.01
2022-08-09T13:24:16.696Z,136.00
2022-08-09T13:29:09.753Z,137.12
2022-08-09T13:34:42.004Z,137.01
2022-08-09T13:41:56.538Z,136.34
2022-08-09T13:46:42.194Z,136.56
2022-08-09T13:51:18.127Z,136.11
2022-08-09T13:56:50.487Z,135.67
2022-08-09T14:02:35.374Z,136.11
2022-08-09T14:07:55.023Z,136.11
2022-08-09T14:14:15.662Z,136.45
2022-08-09T14:18:59.683Z,136.34
2022-08-09T14:24:32.426Z,137.91
2022-08-09T14:30:33.989Z,138.72
2022-08-09T14:35:52.327Z,137.80
2022-08-09T14:41:34.580Z,139.06
2022-08-09T14:47:04.714Z,138.37
2022-08-09T14:52:11.463Z,138.95
2022-08-09T14:57:43.863Z,139.29
2022-08-09T15:03:16.651Z,139.29
2022-08-09T15:08:56.386Z,139.18
2022-08-09T15:14:19.604Z,139.06
2022-08-09T15:19:59.673Z,139.06
2022-08-09T15:25:38.893Z,140.35
2022-08-09T15:31:08.724Z,140.00
2022-08-09T15:36:29.413Z,140.35
2022-08-09T15:41:59.829Z,140.23
2022-08-09T15:47:47.211Z,139.29
2022-08-09T15:58:35.572Z,141.18
2022-08-09T16:04:13.596Z,140.59
2022-08-09T16:10:02.291Z,140.11
2022-08-09T16:16:10.256Z,140.00
2022-08-09T16:20:43.281Z,139.76
2022-08-09T16:26:19.941Z,140.35
2022-08-09T16:32:18.513Z,140.47
2022-08-09T16:34:02.510Z,143.86
2022-08-09T16:39:47.956Z,144.11
2022-08-09T16:45:03.862Z,142.63
2022-08-09T16:50:38.722Z,142.14
2022-08-09T16:56:09.861Z,142.75
2022-08-09T17:01:39.443Z,142.51
2022-08-09T17:08:46.352Z,142.14
2022-08-09T17:12:43.607Z,142.14
2022-08-09T17:18:15.496Z,142.02
2022-08-09T17:24:28.222Z,141.06
2022-08-09T17:29:20.237Z,141.30
2022-08-09T17:35:03.874Z,142.87
2022-08-09T17:40:26.211Z,142.63
2022-08-09T17:46:03.417Z,142.26
2022-08-09T17:51:25.778Z,141.78
2022-08-09T17:56:57.682Z,143.61
2022-08-09T18:02:33.537Z,143.49
2022-08-09T18:08:01.382Z,143.24
2022-08-09T18:13:40.037Z,143.73
2022-08-09T18:20:57.988Z,143.86
2022-08-09T18:24:36.148Z,144.23
2022-08-09T18:30:40.885Z,144.36
2022-08-09T18:35:59.496Z,145.87
2022-08-09T18:41:11.332Z,146.64
2022-08-09T18:46:49.541Z,146.25
2022-08-09T18:52:16.058Z,145.36
2022-08-09T18:57:46.581Z,146.00
2022-08-09T19:03:18.674Z,147.55
2022-08-09T19:08:55.430Z,148.20
2022-08-09T19:14:24.491Z,148.46
2022-08-09T19:20:00.597Z,150.34
2022-08-09T19:25:41.872Z,147.94
2022-08-09T19:30:56.627Z,148.07
2022-08-09T19:36:32.785Z,149.40
2022-08-09T19:42:00.281Z,149.13
2022-08-09T19:47:31.861Z,149.53
2022-08-09T19:53:04.165Z,150.88
2022-08-09T19:58:35.359Z,151.02
2022-08-09T20:04:18.958Z,151.29
2022-08-09T20:09:44.551Z,152.68
2022-08-09T20:16:34.223Z,152.12
2022-08-09T20:20:43.685Z,152.82
2022-08-09T20:26:15.612Z,153.80
2022-08-09T20:32:28.901Z,153.94
2022-08-09T20:37:21.440Z,154.94
2022-08-09T20:42:53.256Z,155.23
2022-08-09T20:48:22.219Z,156.40
2022-08-09T20:53:54.053Z,156.54
2022-08-09T21:00:22.266Z,157.28
2022-08-09T21:05:57.136Z,157.88
2022-08-09T21:10:30.502Z,159.38
2022-08-09T21:16:03.270Z,161.23
2022-08-09T21:21:53.121Z,162.17
2022-08-09T21:27:50.416Z,162.33
2022-08-09T21:32:38.702Z,163.92
2022-08-09T21:38:10.546Z,164.25
2022-08-09T21:43:58.101Z,164.73
2022-08-09T21:49:13.649Z,166.04
2022-08-09T21:54:46.036Z,167.71
2022-08-09T22:00:17.292Z,168.05
2022-08-09T22:05:51.219Z,169.76
2022-08-09T22:12:05.371Z,171.33
2022-08-09T22:16:52.635Z,172.57
2022-08-09T22:22:25.499Z,173.65
2022-08-09T22:27:57.328Z,174.55
2022-08-09T22:33:37.611Z,175.10
2022-08-09T22:39:01.426Z,176.96
2022-08-09T22:50:04.775Z,178.48
2022-08-09T22:56:29.431Z,179.24
2022-08-09T23:06:40.160Z,181.58
2022-08-09T23:12:11.970Z,183.38
2022-08-09T23:17:44.019Z,184.60
2022-08-09T23:23:18.314Z,185.21
2022-08-09T23:28:50.918Z,185.42
2022-08-09T23:34:22.564Z,184.99
2022-08-09T23:39:54.347Z,186.36
2022-08-09T23:45:37.984Z,187.21
2022-08-09T23:50:57.973Z,187.75
2022-08-09T23:56:52.776Z,187.53
